Tyee — WDC8597 — position and weather

sailwx.info

Track history (hours):
 
Tides and Currents Weather Stations Pressure Air Temp Water Temp Dewpoint Dewpoint Depression Visibility Wind Speed Wind Dir Waves Ship Positions

Tyee

Owner: Walker, Brent L, Bellingham, WA. More information available from US FCC via Universal Licensing System and Coast Guard Vessel Documentation Center.

Last reported at 2018-Feb-24 19:03 UTC. Time now 2018-Jun-20 09:40 UTC.
Position N 48°50' W 123°19'.
Warning: this ship's position is months out of date.

Length 17 m.

Type: Pleasure craft. MMSI: 367089850.

Date/timePositionNaut miles runAvg speedWind from/ knotsBaromVisibWave heightAir tempDewpointWater temp
2018-Feb-24 19:03N 48°50' W 123°19'1 8.5
2018-Feb-24 18:59N 48°50' W 123°20'4 8.8
2018-Feb-24 18:30N 48°52' W 123°25'78 1.6
2018-Feb-22 19:00N 49°50' W 124°46'5 8.6
2018-Feb-22 18:26N 49°53' W 124°52'5 8.7
2018-Feb-22 17:49N 49°57' W 124°57'3 8.9
2018-Feb-22 17:28N 49°59' W 125°01'4 8.5
2018-Feb-22 17:00N 50°02' W 125°05'4 8.7
2018-Feb-22 16:30N 50°06' W 125°08'4 8.3
2018-Feb-22 16:00N 50°10' W 125°09'4 7.9
2018-Feb-22 15:30N 50°14' W 125°10'5 0.3
2018-Feb-21 21:36N 50°19' W 125°10'2 6.0
2018-Feb-21 21:18N 50°20' W 125°08'0 0.6
2018-Feb-21 21:00N 50°20' W 125°07'0 0.3
2018-Feb-21 20:27N 50°20' W 125°08'2 3.9
2018-Feb-21 20:00N 50°19' W 125°05'4 8.6
2018-Feb-21 19:30N 50°20' W 124°58'5 9.3
2018-Feb-21 19:00N 50°18' W 124°51'3 6.6
2018-Feb-21 18:30N 50°16' W 124°48'4 7.7
2018-Feb-21 18:00N 50°12' W 124°46'4 8.6
2018-Feb-21 17:30N 50°09' W 124°42'1 1.1
2018-Feb-21 16:58N 50°09' W 124°41'0 0.0
2018-Feb-21 16:22N 50°09' W 124°41'0 0.0
2018-Feb-21 15:58N 50°09' W 124°41'0 0.0
2018-Feb-21 15:28N 50°09' W 124°41'0 0.0
2018-Feb-21 14:58N 50°09' W 124°41'0 0.0
2018-Feb-21 14:28N 50°09' W 124°41'0 0.0
2018-Feb-21 13:55N 50°09' W 124°41'0 0.0
2018-Feb-21 13:28N 50°09' W 124°41'0 0.0
2018-Feb-21 12:55N 50°09' W 124°41'0 0.0
2018-Feb-21 12:13N 50°09' W 124°41'0 0.0
2018-Feb-21 11:58N 50°09' W 124°41'0 0.0
2018-Feb-21 11:16N 50°09' W 124°41'0 0.0
2018-Feb-21 10:58N 50°09' W 124°41'0 0.0
2018-Feb-21 10:25N 50°09' W 124°41'0 0.0
2018-Feb-21 09:58N 50°09' W 124°41'0 0.0
2018-Feb-21 09:28N 50°09' W 124°41'0 0.0
2018-Feb-21 08:58N 50°09' W 124°41'0 0.0
2018-Feb-21 08:28N 50°09' W 124°41'0 0.0
2018-Feb-21 07:58N 50°09' W 124°41'0 0.0
2018-Feb-21 07:28N 50°09' W 124°41'0 0.0
2018-Feb-21 06:55N 50°09' W 124°41'0 0.0
2018-Feb-21 06:22N 50°09' W 124°41'0 0.0
2018-Feb-21 05:55N 50°09' W 124°41'0 0.0
2018-Feb-21 05:28N 50°09' W 124°41'0 0.0
2018-Feb-21 04:52N 50°09' W 124°41'0 0.0
2018-Feb-21 04:25N 50°09' W 124°41'0 0.0
2018-Feb-21 03:58N 50°09' W 124°41'0 0.0
2018-Feb-21 03:25N 50°09' W 124°41'0 0.0
2018-Feb-21 02:58N 50°09' W 124°41'0 0.0
2018-Feb-21 02:28N 50°09' W 124°41'0 0.0
2018-Feb-21 01:58N 50°09' W 124°41'0 0.0
2018-Feb-21 01:28N 50°09' W 124°41'0 0.0
2018-Feb-21 00:58N 50°09' W 124°41'0 0.0
2018-Feb-21 00:28N 50°09' W 124°41'0 0.0
2018-Feb-20 23:58N 50°09' W 124°41'0 0.0
2018-Feb-20 23:28N 50°09' W 124°41'0 0.0
2018-Feb-20 22:58N 50°09' W 124°41'0 0.0
2018-Feb-20 22:28N 50°09' W 124°41'0 0.0
2018-Feb-20 21:58N 50°09' W 124°41'0 0.0
2018-Feb-20 21:28N 50°09' W 124°41'0 0.0
2018-Feb-20 20:58N 50°09' W 124°41'0 0.0
2018-Feb-20 20:28N 50°09' W 124°41'0 0.0
2018-Feb-20 19:46N 50°09' W 124°41'0 0.0
2018-Feb-20 19:22N 50°09' W 124°41'0 0.0
2018-Feb-20 18:58N 50°09' W 124°41'0 0.0
2018-Feb-20 18:28N 50°09' W 124°41'0 0.0
2018-Feb-20 17:58N 50°09' W 124°41'0 0.0
2018-Feb-20 17:28N 50°09' W 124°41'0 0.0
2018-Feb-20 16:58N 50°09' W 124°41'0 0.0
2018-Feb-20 16:28N 50°09' W 124°41'0 0.0
2018-Feb-20 15:55N 50°09' W 124°41'0 0.0
2018-Feb-20 15:25N 50°09' W 124°41'0 0.0
2018-Feb-20 14:58N 50°09' W 124°41'0 0.0
2018-Feb-20 14:28N 50°09' W 124°41'0 0.0
2018-Feb-20 13:58N 50°09' W 124°41'0 0.0
2018-Feb-20 13:25N 50°09' W 124°41'0 0.0
2018-Feb-20 12:58N 50°09' W 124°41'0 0.0
2018-Feb-20 12:28N 50°09' W 124°41'0 0.0
2018-Feb-20 11:58N 50°09' W 124°41'0 0.0
2018-Feb-20 11:28N 50°09' W 124°41'0 0.0
2018-Feb-20 10:58N 50°09' W 124°41'0 0.0
2018-Feb-20 10:28N 50°09' W 124°41'0 0.0
2018-Feb-20 09:58N 50°09' W 124°41'0 0.0
2018-Feb-20 09:28N 50°09' W 124°41'0 0.0
2018-Feb-20 08:52N 50°09' W 124°41'0 0.0
2018-Feb-20 08:25N 50°09' W 124°41'0 0.0
2018-Feb-20 07:58N 50°09' W 124°41'0 0.0
2018-Feb-20 07:28N 50°09' W 124°41'0 0.0
2018-Feb-20 06:55N 50°09' W 124°41'0 0.0
2018-Feb-20 06:28N 50°09' W 124°41'0 0.0
2018-Feb-20 05:58N 50°09' W 124°41'0 0.0
2018-Feb-20 05:28N 50°09' W 124°41'0 0.0
2018-Feb-20 04:55N 50°09' W 124°41'0 0.0
2018-Feb-20 04:25N 50°09' W 124°41'0 0.0
2018-Feb-20 03:55N 50°09' W 124°41'0 0.0
2018-Feb-20 03:28N 50°09' W 124°41'0 0.0
2018-Feb-20 02:58N 50°09' W 124°41'0 0.0
2018-Feb-20 02:25N 50°09' W 124°41'0 0.0
2018-Feb-20 01:55N 50°09' W 124°41'0 0.0
2018-Feb-20 01:28N 50°09' W 124°41'0 0.0
2018-Feb-20 00:58N 50°09' W 124°41'0 0.0
2018-Feb-20 00:28N 50°09' W 124°41'0 0.0
2018-Feb-19 23:52N 50°09' W 124°41'0 0.0
2018-Feb-19 23:28N 50°09' W 124°41'0 0.0
2018-Feb-19 22:58N 50°09' W 124°41'0 0.0
2018-Feb-19 22:28N 50°09' W 124°41'0 0.4
2018-Feb-19 22:00N 50°08' W 124°41'0 0.4
2018-Feb-19 21:23N 50°09' W 124°41'0 0.0
2018-Feb-19 20:59N 50°09' W 124°41'0 0.0
2018-Feb-19 20:29N 50°09' W 124°41'0 0.0
2018-Feb-19 19:59N 50°09' W 124°41'0 0.0
2018-Feb-19 19:29N 50°09' W 124°41'0 0.0
2018-Feb-19 18:59N 50°09' W 124°41'0 0.0
2018-Feb-19 18:29N 50°09' W 124°41'0 0.0
2018-Feb-19 17:59N 50°09' W 124°41'0 0.0
2018-Feb-19 17:29N 50°09' W 124°41'0 0.0
2018-Feb-19 16:59N 50°09' W 124°41'0 0.0
2018-Feb-19 16:29N 50°09' W 124°41'0 0.0
2018-Feb-19 15:59N 50°09' W 124°41'0 0.0
2018-Feb-19 15:29N 50°09' W 124°41'0 0.0
2018-Feb-19 14:59N 50°09' W 124°41'0 0.0
2018-Feb-19 14:29N 50°09' W 124°41'0 0.0
2018-Feb-19 13:59N 50°09' W 124°41'0 0.0
2018-Feb-19 13:29N 50°09' W 124°41'0 0.0
2018-Feb-19 12:59N 50°09' W 124°41'0 0.0
2018-Feb-19 12:26N 50°09' W 124°41'0 0.0
2018-Feb-19 11:59N 50°09' W 124°41'0 0.0
2018-Feb-19 11:26N 50°09' W 124°41'0 0.0
2018-Feb-19 10:56N 50°09' W 124°41'0 0.0
2018-Feb-19 10:29N 50°09' W 124°41'0 0.0
2018-Feb-19 09:59N 50°09' W 124°41'0 0.0
2018-Feb-19 09:29N 50°09' W 124°41'0 0.0
2018-Feb-19 08:59N 50°09' W 124°41'0 0.0
2018-Feb-19 08:23N 50°09' W 124°41'0 0.0
2018-Feb-19 07:56N 50°09' W 124°41'0 0.0
2018-Feb-19 07:29N 50°09' W 124°41'0 0.0
2018-Feb-19 06:59N 50°09' W 124°41'0 0.0
2018-Feb-19 06:26N 50°09' W 124°41'0 0.0
2018-Feb-19 05:59N 50°09' W 124°41'0 0.0
2018-Feb-19 05:23N 50°09' W 124°41'0 0.0
2018-Feb-19 04:53N 50°09' W 124°41'0 0.0
2018-Feb-19 04:29N 50°09' W 124°41'0 0.0
2018-Feb-19 03:59N 50°09' W 124°41'0 0.0
2018-Feb-19 03:29N 50°09' W 124°41'0 0.0
2018-Feb-19 02:59N 50°09' W 124°41'0 0.0
2018-Feb-19 02:29N 50°09' W 124°41'0 0.0
2018-Feb-19 01:56N 50°09' W 124°41'0 0.0
2018-Feb-19 01:29N 50°09' W 124°41'1 1.8
2018-Feb-19 01:00N 50°09' W 124°42'1 2.3
2018-Feb-19 00:30N 50°08' W 124°43'0 0.1
2018-Feb-18 23:59N 50°08' W 124°43'4 7.8
2018-Feb-18 23:30N 50°05' W 124°47'3 5.9
2018-Feb-18 23:00N 50°02' W 124°46'1 1.9
2018-Feb-18 22:28N 50°03' W 124°45'0 0.0
2018-Feb-18 21:58N 50°03' W 124°45'0 0.0
2018-Feb-18 21:28N 50°03' W 124°45'0 0.0
2018-Feb-18 20:58N 50°03' W 124°45'0 0.0
2018-Feb-18 20:28N 50°03' W 124°45'0 0.0
2018-Feb-18 19:58N 50°03' W 124°45'0 0.0
2018-Feb-18 19:28N 50°03' W 124°45'0 0.0
2018-Feb-18 18:58N 50°03' W 124°45'0 0.0
2018-Feb-18 18:25N 50°03' W 124°45'0 0.0
2018-Feb-18 17:58N 50°03' W 124°45'0 0.0
2018-Feb-18 17:28N 50°03' W 124°45'0 0.0
2018-Feb-18 16:58N 50°03' W 124°45'0 0.0
2018-Feb-18 16:28N 50°03' W 124°45'0 0.0
2018-Feb-18 15:55N 50°03' W 124°45'0 0.0
2018-Feb-18 15:28N 50°03' W 124°45'0 0.0
2018-Feb-18 14:58N 50°03' W 124°45'0 0.0
2018-Feb-18 14:28N 50°03' W 124°45'0 0.0
2018-Feb-18 13:58N 50°03' W 124°45'0 0.0
2018-Feb-18 13:28N 50°03' W 124°45'0 0.0
2018-Feb-18 12:58N 50°03' W 124°45'0 0.0
2018-Feb-18 12:28N 50°03' W 124°45'0 0.0
2018-Feb-18 11:58N 50°03' W 124°45'0 0.0
2018-Feb-18 11:10N 50°03' W 124°45'0 0.0
2018-Feb-18 10:58N 50°03' W 124°45'0 0.0
2018-Feb-18 10:28N 50°03' W 124°45'0 0.0
2018-Feb-18 09:58N 50°03' W 124°45'0 0.0
2018-Feb-18 09:25N 50°03' W 124°45'0 0.0
2018-Feb-18 08:58N 50°03' W 124°45'0 0.0
2018-Feb-18 08:28N 50°03' W 124°45'0 0.0
2018-Feb-18 07:58N 50°03' W 124°45'0 0.0
2018-Feb-18 07:28N 50°03' W 124°45'0 0.0
2018-Feb-18 06:58N 50°03' W 124°45'0 0.0
2018-Feb-18 06:25N 50°03' W 124°45'0 0.0
2018-Feb-18 05:58N 50°03' W 124°45'0 0.0
2018-Feb-18 05:28N 50°03' W 124°45'0 0.0
2018-Feb-18 04:58N 50°03' W 124°45'0 0.0
2018-Feb-18 04:25N 50°03' W 124°45'0 0.0
2018-Feb-18 03:58N 50°03' W 124°45'0 0.0
2018-Feb-18 03:25N 50°03' W 124°45'0 0.0
2018-Feb-18 02:58N 50°03' W 124°45'0 0.0
2018-Feb-18 02:30N 50°03' W 124°45'2 4.7
2018-Feb-18 02:00N 50°04' W 124°48'3 6.4
2018-Feb-18 01:29N 50°01' W 124°48'510.5
2018-Feb-18 01:00N 49°57' W 124°43'510.5
2018-Feb-18 00:29N 49°53' W 124°38'78 2.7
2018-Feb-16 19:37N 48°52' W 123°23'  
Track history (hours):
 
Tides and Currents Weather Stations Pressure Air Temp Water Temp Dewpoint Dewpoint Depression Visibility Wind Speed Wind Dir Waves Ship Positions

Tyee

Owner: Walker, Brent L, Bellingham, WA. More information available from US FCC via Universal Licensing System and Coast Guard Vessel Documentation Center.

Last reported at 2018-Feb-24 19:03 UTC. Time now 2018-Jun-20 09:40 UTC.
Position N 48°50' W 123°19'.
Warning: this ship's position is months out of date.

Length 17 m.

Type: Pleasure craft. MMSI: 367089850.

Date/timePositionNaut miles runAvg speedWind from/ knotsBaromVisibWave heightAir tempDewpointWater temp
2018-Feb-24 19:03N 48°50' W 123°19'1 8.5
2018-Feb-24 18:59N 48°50' W 123°20'4 8.8
2018-Feb-24 18:30N 48°52' W 123°25'78 1.6
2018-Feb-22 19:00N 49°50' W 124°46'5 8.6
2018-Feb-22 18:26N 49°53' W 124°52'5 8.7
2018-Feb-22 17:49N 49°57' W 124°57'3 8.9
2018-Feb-22 17:28N 49°59' W 125°01'4 8.5
2018-Feb-22 17:00N 50°02' W 125°05'4 8.7
2018-Feb-22 16:30N 50°06' W 125°08'4 8.3
2018-Feb-22 16:00N 50°10' W 125°09'4 7.9
2018-Feb-22 15:30N 50°14' W 125°10'5 0.3
2018-Feb-21 21:36N 50°19' W 125°10'2 6.0
2018-Feb-21 21:18N 50°20' W 125°08'0 0.6
2018-Feb-21 21:00N 50°20' W 125°07'0 0.3
2018-Feb-21 20:27N 50°20' W 125°08'2 3.9
2018-Feb-21 20:00N 50°19' W 125°05'4 8.6
2018-Feb-21 19:30N 50°20' W 124°58'5 9.3
2018-Feb-21 19:00N 50°18' W 124°51'3 6.6
2018-Feb-21 18:30N 50°16' W 124°48'4 7.7
2018-Feb-21 18:00N 50°12' W 124°46'4 8.6
2018-Feb-21 17:30N 50°09' W 124°42'1 1.1
2018-Feb-21 16:58N 50°09' W 124°41'0 0.0
2018-Feb-21 16:22N 50°09' W 124°41'0 0.0
2018-Feb-21 15:58N 50°09' W 124°41'0 0.0
2018-Feb-21 15:28N 50°09' W 124°41'0 0.0
2018-Feb-21 14:58N 50°09' W 124°41'0 0.0
2018-Feb-21 14:28N 50°09' W 124°41'0 0.0
2018-Feb-21 13:55N 50°09' W 124°41'0 0.0
2018-Feb-21 13:28N 50°09' W 124°41'0 0.0
2018-Feb-21 12:55N 50°09' W 124°41'0 0.0
2018-Feb-21 12:13N 50°09' W 124°41'0 0.0
2018-Feb-21 11:58N 50°09' W 124°41'0 0.0
2018-Feb-21 11:16N 50°09' W 124°41'0 0.0
2018-Feb-21 10:58N 50°09' W 124°41'0 0.0
2018-Feb-21 10:25N 50°09' W 124°41'0 0.0
2018-Feb-21 09:58N 50°09' W 124°41'0 0.0
2018-Feb-21 09:28N 50°09' W 124°41'0 0.0
2018-Feb-21 08:58N 50°09' W 124°41'0 0.0
2018-Feb-21 08:28N 50°09' W 124°41'0 0.0
2018-Feb-21 07:58N 50°09' W 124°41'0 0.0
2018-Feb-21 07:28N 50°09' W 124°41'0 0.0
2018-Feb-21 06:55N 50°09' W 124°41'0 0.0
2018-Feb-21 06:22N 50°09' W 124°41'0 0.0
2018-Feb-21 05:55N 50°09' W 124°41'0 0.0
2018-Feb-21 05:28N 50°09' W 124°41'0 0.0
2018-Feb-21 04:52N 50°09' W 124°41'0 0.0
2018-Feb-21 04:25N 50°09' W 124°41'0 0.0
2018-Feb-21 03:58N 50°09' W 124°41'0 0.0
2018-Feb-21 03:25N 50°09' W 124°41'0 0.0
2018-Feb-21 02:58N 50°09' W 124°41'0 0.0
2018-Feb-21 02:28N 50°09' W 124°41'0 0.0
2018-Feb-21 01:58N 50°09' W 124°41'0 0.0
2018-Feb-21 01:28N 50°09' W 124°41'0 0.0
2018-Feb-21 00:58N 50°09' W 124°41'0 0.0
2018-Feb-21 00:28N 50°09' W 124°41'0 0.0
2018-Feb-20 23:58N 50°09' W 124°41'0 0.0
2018-Feb-20 23:28N 50°09' W 124°41'0 0.0
2018-Feb-20 22:58N 50°09' W 124°41'0 0.0
2018-Feb-20 22:28N 50°09' W 124°41'0 0.0
2018-Feb-20 21:58N 50°09' W 124°41'0 0.0
2018-Feb-20 21:28N 50°09' W 124°41'0 0.0
2018-Feb-20 20:58N 50°09' W 124°41'0 0.0
2018-Feb-20 20:28N 50°09' W 124°41'0 0.0
2018-Feb-20 19:46N 50°09' W 124°41'0 0.0
2018-Feb-20 19:22N 50°09' W 124°41'0 0.0
2018-Feb-20 18:58N 50°09' W 124°41'0 0.0
2018-Feb-20 18:28N 50°09' W 124°41'0 0.0
2018-Feb-20 17:58N 50°09' W 124°41'0 0.0
2018-Feb-20 17:28N 50°09' W 124°41'0 0.0
2018-Feb-20 16:58N 50°09' W 124°41'0 0.0
2018-Feb-20 16:28N 50°09' W 124°41'0 0.0
2018-Feb-20 15:55N 50°09' W 124°41'0 0.0
2018-Feb-20 15:25N 50°09' W 124°41'0 0.0
2018-Feb-20 14:58N 50°09' W 124°41'0 0.0
2018-Feb-20 14:28N 50°09' W 124°41'0 0.0
2018-Feb-20 13:58N 50°09' W 124°41'0 0.0
2018-Feb-20 13:25N 50°09' W 124°41'0 0.0
2018-Feb-20 12:58N 50°09' W 124°41'0 0.0
2018-Feb-20 12:28N 50°09' W 124°41'0 0.0
2018-Feb-20 11:58N 50°09' W 124°41'0 0.0
2018-Feb-20 11:28N 50°09' W 124°41'0 0.0
2018-Feb-20 10:58N 50°09' W 124°41'0 0.0
2018-Feb-20 10:28N 50°09' W 124°41'0 0.0
2018-Feb-20 09:58N 50°09' W 124°41'0 0.0
2018-Feb-20 09:28N 50°09' W 124°41'0 0.0
2018-Feb-20 08:52N 50°09' W 124°41'0 0.0
2018-Feb-20 08:25N 50°09' W 124°41'0 0.0
2018-Feb-20 07:58N 50°09' W 124°41'0 0.0
2018-Feb-20 07:28N 50°09' W 124°41'0 0.0
2018-Feb-20 06:55N 50°09' W 124°41'0 0.0
2018-Feb-20 06:28N 50°09' W 124°41'0 0.0
2018-Feb-20 05:58N 50°09' W 124°41'0 0.0
2018-Feb-20 05:28N 50°09' W 124°41'0 0.0
2018-Feb-20 04:55N 50°09' W 124°41'0 0.0
2018-Feb-20 04:25N 50°09' W 124°41'0 0.0
2018-Feb-20 03:55N 50°09' W 124°41'0 0.0
2018-Feb-20 03:28N 50°09' W 124°41'0 0.0
2018-Feb-20 02:58N 50°09' W 124°41'0 0.0
2018-Feb-20 02:25N 50°09' W 124°41'0 0.0
2018-Feb-20 01:55N 50°09' W 124°41'0 0.0
2018-Feb-20 01:28N 50°09' W 124°41'0 0.0
2018-Feb-20 00:58N 50°09' W 124°41'0 0.0
2018-Feb-20 00:28N 50°09' W 124°41'0 0.0
2018-Feb-19 23:52N 50°09' W 124°41'0 0.0
2018-Feb-19 23:28N 50°09' W 124°41'0 0.0
2018-Feb-19 22:58N 50°09' W 124°41'0 0.0
2018-Feb-19 22:28N 50°09' W 124°41'0 0.4
2018-Feb-19 22:00N 50°08' W 124°41'0 0.4
2018-Feb-19 21:23N 50°09' W 124°41'0 0.0
2018-Feb-19 20:59N 50°09' W 124°41'0 0.0
2018-Feb-19 20:29N 50°09' W 124°41'0 0.0
2018-Feb-19 19:59N 50°09' W 124°41'0 0.0
2018-Feb-19 19:29N 50°09' W 124°41'0 0.0
2018-Feb-19 18:59N 50°09' W 124°41'0 0.0
2018-Feb-19 18:29N 50°09' W 124°41'0 0.0
2018-Feb-19 17:59N 50°09' W 124°41'0 0.0
2018-Feb-19 17:29N 50°09' W 124°41'0 0.0
2018-Feb-19 16:59N 50°09' W 124°41'0 0.0
2018-Feb-19 16:29N 50°09' W 124°41'0 0.0
2018-Feb-19 15:59N 50°09' W 124°41'0 0.0
2018-Feb-19 15:29N 50°09' W 124°41'0 0.0
2018-Feb-19 14:59N 50°09' W 124°41'0 0.0
2018-Feb-19 14:29N 50°09' W 124°41'0 0.0
2018-Feb-19 13:59N 50°09' W 124°41'0 0.0
2018-Feb-19 13:29N 50°09' W 124°41'0 0.0
2018-Feb-19 12:59N 50°09' W 124°41'0 0.0
2018-Feb-19 12:26N 50°09' W 124°41'0 0.0
2018-Feb-19 11:59N 50°09' W 124°41'0 0.0
2018-Feb-19 11:26N 50°09' W 124°41'0 0.0
2018-Feb-19 10:56N 50°09' W 124°41'0 0.0
2018-Feb-19 10:29N 50°09' W 124°41'0 0.0
2018-Feb-19 09:59N 50°09' W 124°41'0 0.0
2018-Feb-19 09:29N 50°09' W 124°41'0 0.0
2018-Feb-19 08:59N 50°09' W 124°41'0 0.0
2018-Feb-19 08:23N 50°09' W 124°41'0 0.0
2018-Feb-19 07:56N 50°09' W 124°41'0 0.0
2018-Feb-19 07:29N 50°09' W 124°41'0 0.0
2018-Feb-19 06:59N 50°09' W 124°41'0 0.0
2018-Feb-19 06:26N 50°09' W 124°41'0 0.0
2018-Feb-19 05:59N 50°09' W 124°41'0 0.0
2018-Feb-19 05:23N 50°09' W 124°41'0 0.0
2018-Feb-19 04:53N 50°09' W 124°41'0 0.0
2018-Feb-19 04:29N 50°09' W 124°41'0 0.0
2018-Feb-19 03:59N 50°09' W 124°41'0 0.0
2018-Feb-19 03:29N 50°09' W 124°41'0 0.0
2018-Feb-19 02:59N 50°09' W 124°41'0 0.0
2018-Feb-19 02:29N 50°09' W 124°41'0 0.0
2018-Feb-19 01:56N 50°09' W 124°41'0 0.0
2018-Feb-19 01:29N 50°09' W 124°41'1 1.8
2018-Feb-19 01:00N 50°09' W 124°42'1 2.3
2018-Feb-19 00:30N 50°08' W 124°43'0 0.1
2018-Feb-18 23:59N 50°08' W 124°43'4 7.8
2018-Feb-18 23:30N 50°05' W 124°47'3 5.9
2018-Feb-18 23:00N 50°02' W 124°46'1 1.9
2018-Feb-18 22:28N 50°03' W 124°45'0 0.0
2018-Feb-18 21:58N 50°03' W 124°45'0 0.0
2018-Feb-18 21:28N 50°03' W 124°45'0 0.0
2018-Feb-18 20:58N 50°03' W 124°45'0 0.0
2018-Feb-18 20:28N 50°03' W 124°45'0 0.0
2018-Feb-18 19:58N 50°03' W 124°45'0 0.0
2018-Feb-18 19:28N 50°03' W 124°45'0 0.0
2018-Feb-18 18:58N 50°03' W 124°45'0 0.0
2018-Feb-18 18:25N 50°03' W 124°45'0 0.0
2018-Feb-18 17:58N 50°03' W 124°45'0 0.0
2018-Feb-18 17:28N 50°03' W 124°45'0 0.0
2018-Feb-18 16:58N 50°03' W 124°45'0 0.0
2018-Feb-18 16:28N 50°03' W 124°45'0 0.0
2018-Feb-18 15:55N 50°03' W 124°45'0 0.0
2018-Feb-18 15:28N 50°03' W 124°45'0 0.0
2018-Feb-18 14:58N 50°03' W 124°45'0 0.0
2018-Feb-18 14:28N 50°03' W 124°45'0 0.0
2018-Feb-18 13:58N 50°03' W 124°45'0 0.0
2018-Feb-18 13:28N 50°03' W 124°45'0 0.0
2018-Feb-18 12:58N 50°03' W 124°45'0 0.0
2018-Feb-18 12:28N 50°03' W 124°45'0 0.0
2018-Feb-18 11:58N 50°03' W 124°45'0 0.0
2018-Feb-18 11:10N 50°03' W 124°45'0 0.0
2018-Feb-18 10:58N 50°03' W 124°45'0 0.0
2018-Feb-18 10:28N 50°03' W 124°45'0 0.0
2018-Feb-18 09:58N 50°03' W 124°45'0 0.0
2018-Feb-18 09:25N 50°03' W 124°45'0 0.0
2018-Feb-18 08:58N 50°03' W 124°45'0 0.0
2018-Feb-18 08:28N 50°03' W 124°45'0 0.0
2018-Feb-18 07:58N 50°03' W 124°45'0 0.0
2018-Feb-18 07:28N 50°03' W 124°45'0 0.0
2018-Feb-18 06:58N 50°03' W 124°45'0 0.0
2018-Feb-18 06:25N 50°03' W 124°45'0 0.0
2018-Feb-18 05:58N 50°03' W 124°45'0 0.0
2018-Feb-18 05:28N 50°03' W 124°45'0 0.0
2018-Feb-18 04:58N 50°03' W 124°45'0 0.0
2018-Feb-18 04:25N 50°03' W 124°45'0 0.0
2018-Feb-18 03:58N 50°03' W 124°45'0 0.0
2018-Feb-18 03:25N 50°03' W 124°45'0 0.0
2018-Feb-18 02:58N 50°03' W 124°45'0 0.0
2018-Feb-18 02:30N 50°03' W 124°45'2 4.7
2018-Feb-18 02:00N 50°04' W 124°48'3 6.4
2018-Feb-18 01:29N 50°01' W 124°48'510.5
2018-Feb-18 01:00N 49°57' W 124°43'510.5
2018-Feb-18 00:29N 49°53' W 124°38'78 2.7
2018-Feb-16 19:37N 48°52' W 123°23'  

Dump ship's entire track history